Time;durP1;ratioP1;P1;durP2;ratioP2;P2;SDS_P1;SDS_P2;PMS_P1;PMS_P2;Temp;Humidity;BMP_temperature;BMP_pressure;BME280_temperature;BME280_humidity;BME280_pressure;Samples;Min_cycle;Max_cycle;Signal;HPM_P1;HPM_P2
2022/05/25 05:20:08;;;;;;;0.00;0.00;;;;;;;-145.06;100.00;63404.56;10467020;28;20393;-93
2022/05/25 05:25:08;;;;;;;0.10;0.10;;;;;;;-145.06;100.00;63404.56;10413142;28;20063;-85
2022/05/25 05:30:14;;;;;;;0.00;0.00;;;;;;;-145.06;100.00;63404.56;10401069;28;20052;-84
2022/05/25 05:35:14;;;;;;;0.10;0.10;;;;;;;-145.06;100.00;63404.56;10400364;28;20037;-85
2022/05/25 05:40:17;;;;;;;0.00;0.00;;;;;;;-145.06;100.00;63404.56;10400457;28;20025;-85
2022/05/25 05:45:24;;;;;;;0.10;0.10;;;;;;;-145.06;100.00;63404.56;10400596;28;20128;-84
2022/05/25 05:50:25;;;;;;;0.10;0.10;;;;;;;-145.06;100.00;63404.56;10409474;28;20033;-85
2022/05/25 05:55:25;;;;;;;0.10;0.10;;;;;;;-145.06;100.00;63404.56;10458161;28;20420;-84
2022/05/25 06:00:26;;;;;;;0.00;0.00;;;;;;;-145.06;100.00;63404.56;10440184;28;20033;-85
2022/05/25 06:05:26;;;;;;;0.10;0.10;;;;;;;-145.06;100.00;63404.56;10458196;28;20032;-85
2022/05/25 06:10:27;;;;;;;0.10;0.10;;;;;;;-145.06;100.00;63404.56;10457848;28;20041;-85
2022/05/25 06:20:49;;;;;;;0.10;0.10;;;;;;;-145.06;100.00;63404.56;10450585;28;20496;-85
2022/05/25 06:25:49;;;;;;;0.10;0.10;;;;;;;-145.06;100.00;63404.56;10454704;28;20489;-86
2022/05/25 06:30:50;;;;;;;0.10;0.10;;;;;;;-145.06;100.00;63404.56;10436988;28;20131;-86
2022/05/25 06:35:50;;;;;;;0.10;0.10;;;;;;;-145.06;100.00;63404.56;10435975;28;20029;-86
2022/05/25 06:40:50;;;;;;;0.10;0.10;;;;;;;-145.06;100.00;63404.56;10437158;28;20052;-85
2022/05/25 06:45:51;;;;;;;0.00;0.00;;;;;;;-145.06;100.00;63404.56;10454300;28;20033;-86
2022/05/25 06:50:51;;;;;;;0.10;0.10;;;;;;;-145.06;100.00;63404.56;10429791;28;20116;-85
2022/05/25 06:55:52;;;;;;;0.10;0.10;;;;;;;-145.06;100.00;63404.56;10453746;28;20032;-85
2022/05/25 07:00:52;;;;;;;0.10;0.10;;;;;;;-145.06;100.00;63404.56;10435915;28;20029;-86
2022/05/25 07:05:53;;;;;;;0.10;0.10;;;;;;;-145.06;100.00;63404.56;10453816;28;20190;-86
2022/05/25 07:10:53;;;;;;;0.10;0.10;;;;;;;-145.06;100.00;63404.56;10435660;28;20029;-85
2022/05/25 07:15:56;;;;;;;0.10;0.10;;;;;;;-145.06;100.00;63404.56;10435424;28;20040;-86
2022/05/25 07:21:01;;;;;;;0.10;0.10;;;;;;;-145.06;100.00;63404.56;10392810;28;1050167;-86
2022/05/25 07:26:02;;;;;;;0.10;0.10;;;;;;;-145.06;100.00;63404.56;10436803;28;20543;-85
2022/05/25 07:31:05;;;;;;;;;;;;;;;-145.06;100.00;63404.56;10437233;28;20482;-85
2022/05/25 07:36:09;;;;;;;0.00;0.00;;;;;;;-145.06;100.00;63404.56;10454424;28;20312;-86
2022/05/25 07:41:10;;;;;;;0.10;0.10;;;;;;;-145.06;100.00;63404.56;10438266;28;20028;-85
2022/05/25 07:46:10;;;;;;;0.07;0.07;;;;;;;-145.06;100.00;63404.56;10436701;28;20409;-86
2022/05/25 07:51:10;;;;;;;0.10;0.10;;;;;;;-145.06;100.00;63404.56;10433305;28;20028;-86
2022/05/25 07:56:11;;;;;;;0.10;0.10;;;;;;;-145.06;100.00;63404.56;10458248;28;20029;-85
2022/05/25 08:01:14;;;;;;;0.10;0.10;;;;;;;-145.06;100.00;63404.56;10441168;28;20055;-86
2022/05/25 08:06:14;;;;;;;0.10;0.10;;;;;;;-145.06;100.00;63404.56;10456643;28;20031;-86
2022/05/25 08:11:17;;;;;;;0.10;0.10;;;;;;;-145.06;100.00;63404.56;10439227;28;20140;-86
2022/05/25 08:16:18;;;;;;;0.00;0.00;;;;;;;-145.06;100.00;63404.56;10440624;28;20029;-85
2022/05/25 08:21:18;;;;;;;0.00;0.00;;;;;;;-145.06;100.00;63404.56;10433529;28;20033;-85
2022/05/25 08:26:18;;;;;;;0.05;0.05;;;;;;;-145.06;100.00;63404.56;10456243;28;20087;-85
2022/05/25 08:31:18;;;;;;;0.00;0.00;;;;;;;-145.06;100.00;63404.56;10456130;28;20421;-86
2022/05/25 08:36:19;;;;;;;0.00;0.00;;;;;;;-145.06;100.00;63404.56;10456251;28;20111;-85
2022/05/25 08:41:26;;;;;;;0.00;0.00;;;;;;;-145.06;100.00;63404.56;10440311;28;20036;-86
2022/05/25 08:46:28;;;;;;;0.00;0.00;;;;;;;-145.06;100.00;63404.56;10437883;28;20101;-85
2022/05/25 08:51:31;;;;;;;0.00;0.00;;;;;;;-145.06;100.00;63404.56;10433217;28;20029;-85
2022/05/25 08:56:56;;;;;;;0.00;0.00;;;;;;;-145.06;100.00;63404.56;10458250;28;20127;-84
2022/05/25 09:02:24;;;;;;;0.00;0.00;;;;;;;-145.06;100.00;63404.56;10448456;28;20420;-85
2022/05/25 09:07:42;;;;;;;0.10;0.10;;;;;;;-145.06;100.00;63404.56;10448718;28;20037;-85
2022/05/25 09:12:47;;;;;;;0.00;0.00;;;;;;;-145.06;100.00;63404.56;10463917;28;20106;-84
2022/05/25 09:17:56;;;;;;;0.10;0.10;;;;;;;-145.06;100.00;63404.56;10463494;28;20033;-85
2022/05/25 09:22:58;;;;;;;0.10;0.10;;;;;;;-145.06;100.00;63404.56;10439023;28;20041;-84
2022/05/25 09:28:07;;;;;;;1.08;0.30;;;;;;;-145.06;100.00;63404.56;10447898;28;20205;-85
2022/05/25 09:33:16;;;;;;;0.00;0.00;;;;;;;-145.06;100.00;63404.56;10445139;28;20041;-84
2022/05/25 09:38:42;;;;;;;0.10;0.10;;;;;;;-145.06;100.00;63404.56;10444429;28;20473;-84
2022/05/25 09:43:44;;;;;;;0.00;0.00;;;;;;;-145.06;100.00;63404.56;10460936;28;20111;-84
2022/05/25 09:48:58;;;;;;;0.00;0.00;;;;;;;-145.06;100.00;63404.56;10458308;28;20121;-84
2022/05/25 09:54:13;;;;;;;0.00;0.00;;;;;;;-145.06;100.00;63404.56;10459621;28;20473;-84
2022/05/25 09:59:23;;;;;;;0.00;0.00;;;;;;;-145.06;100.00;63404.56;10443183;28;20493;-85
2022/05/25 10:04:55;;;;;;;0.00;0.00;;;;;;;-145.06;100.00;63404.56;10444705;28;20523;-84
2022/05/25 10:10:02;;;;;;;0.00;0.00;;;;;;;-145.06;100.00;63404.56;10440209;28;20394;-84
2022/05/25 10:15:06;;;;;;;0.00;0.00;;;;;;;-145.06;100.00;63404.56;10442855;28;20285;-84
2022/05/25 10:20:22;;;;;;;0.00;0.00;;;;;;;-145.06;100.00;63404.56;10436816;28;20029;-84
2022/05/25 10:25:57;;;;;;;0.00;0.00;;;;;;;-145.06;100.00;63404.56;10447327;28;20189;-85
2022/05/25 10:36:48;;;;;;;0.00;0.00;;;;;;;-145.06;100.00;63404.56;10459282;28;20032;-86
2022/05/25 10:42:12;;;;;;;0.00;0.00;;;;;;;-145.06;100.00;63404.56;10440346;28;20036;-85
2022/05/25 10:47:29;;;;;;;0.00;0.00;;;;;;;-145.06;100.00;63404.56;10440209;28;20055;-85
2022/05/25 10:52:43;;;;;;;0.00;0.00;;;;;;;-145.06;100.00;63404.56;10440624;28;20486;-85
2022/05/25 10:58:05;;;;;;;0.00;0.00;;;;;;;-145.06;100.00;63404.56;10456748;28;20040;-85
2022/05/25 11:03:25;;;;;;;0.00;0.00;;;;;;;-145.06;100.00;63404.56;10440608;28;20033;-85
2022/05/25 11:08:37;;;;;;;0.00;0.00;;;;;;;-145.06;100.00;63404.56;10441462;28;20405;-85
2022/05/25 11:13:56;;;;;;;0.05;0.05;;;;;;;-145.06;100.00;63404.56;10429201;28;20091;-85
2022/05/25 11:19:19;;;;;;;0.00;0.00;;;;;;;-145.06;100.00;63404.56;10447278;28;20048;-86
2022/05/25 11:24:35;;;;;;;0.00;0.00;;;;;;;-145.06;100.00;63404.56;10488815;22;20052;-87
2022/05/25 11:29:56;;;;;;;0.00;0.00;;;;;;;-145.06;100.00;63404.56;10494884;28;20033;-87
2022/05/25 11:35:21;;;;;;;0.00;0.00;;;;;;;-145.06;100.00;63404.56;10494828;28;20511;-87
2022/05/25 11:40:40;;;;;;;0.00;0.00;;;;;;;-145.06;100.00;63404.56;10494795;28;20039;-88
2022/05/25 11:45:52;;;;;;;0.10;0.10;;;;;;;-145.06;100.00;63404.56;10503368;28;20040;-88
2022/05/25 11:51:19;;;;;;;0.10;0.10;;;;;;;-145.06;100.00;63404.56;10537684;28;20040;-88
2022/05/25 11:56:38;;;;;;;0.00;0.00;;;;;;;-145.06;100.00;63404.56;10542447;28;20117;-88
2022/05/25 12:01:57;;;;;;;0.00;0.00;;;;;;;-145.06;100.00;63404.56;10588404;28;20021;-87
2022/05/25 12:07:20;;;;;;;0.00;0.00;;;;;;;-145.06;100.00;63404.56;10559011;28;20036;-87
2022/05/25 12:12:46;;;;;;;0.00;0.00;;;;;;;-145.06;100.00;63404.56;10521860;28;20051;-86
2022/05/25 12:18:10;;;;;;;0.00;0.00;;;;;;;-145.06;100.00;63404.56;10526503;28;20043;-87
2022/05/25 12:23:15;;;;;;;0.00;0.00;;;;;;;-145.06;100.00;63404.56;10506210;28;20090;-87
2022/05/25 12:28:16;;;;;;;0.10;0.10;;;;;;;-145.06;100.00;63404.56;10476426;28;20032;-87
2022/05/25 12:33:23;;;;;;;0.10;0.10;;;;;;;-145.06;100.00;63404.56;10500770;28;20028;-87
2022/05/25 12:38:28;;;;;;;0.10;0.10;;;;;;;-145.06;100.00;63404.56;10485383;28;20028;-87
2022/05/25 12:43:34;;;;;;;0.00;0.00;;;;;;;-145.06;100.00;63404.56;10525922;28;20222;-87
2022/05/25 12:48:46;;;;;;;0.00;0.00;;;;;;;-145.06;100.00;63404.56;10525724;28;20123;-87
2022/05/25 12:53:46;;;;;;;0.00;0.00;;;;;;;-145.06;100.00;63404.56;10526647;28;20185;-88
2022/05/25 12:58:46;;;;;;;0.10;0.10;;;;;;;-145.06;100.00;63404.56;10525141;28;20123;-88
2022/05/25 13:03:46;;;;;;;0.00;0.00;;;;;;;-145.06;100.00;63404.56;10542879;28;20044;-87
2022/05/25 13:08:47;;;;;;;0.10;0.10;;;;;;;-145.06;100.00;63404.56;10526954;28;20112;-88
2022/05/25 13:13:48;;;;;;;0.05;0.05;;;;;;;-145.06;100.00;63404.56;10524451;28;20038;-88
2022/05/25 13:18:54;;;;;;;0.00;0.00;;;;;;;-145.06;100.00;63404.56;10543283;28;20294;-87
2022/05/25 13:23:57;;;;;;;0.00;0.00;;;;;;;-145.06;100.00;63404.56;10524123;28;20526;-87
2022/05/25 13:29:02;;;;;;;;;;;;;;;-145.06;100.00;63404.56;10524683;28;20028;-87
2022/05/25 13:34:15;;;;;;;0.00;0.00;;;;;;;-145.06;100.00;63404.56;10502797;28;19962;-86
2022/05/25 13:39:20;;;;;;;0.00;0.00;;;;;;;-145.06;100.00;63404.56;10517145;28;20064;-88
2022/05/25 13:44:33;;;;;;;0.00;0.00;;;;;;;-145.06;100.00;63404.56;10522389;28;20078;-87
2022/05/25 13:49:47;;;;;;;0.00;0.00;;;;;;;-145.06;100.00;63404.56;10542108;28;20377;-88
2022/05/25 13:54:51;;;;;;;0.10;0.10;;;;;;;-145.06;100.00;63404.56;10523190;28;20028;-87
2022/05/25 13:59:51;;;;;;;0.00;0.00;;;;;;;-145.06;100.00;63404.56;10541374;28;20020;-88
2022/05/25 14:04:59;;;;;;;0.00;0.00;;;;;;;-145.06;100.00;63404.56;10515060;28;20481;-87
2022/05/25 14:15:41;;;;;;;0.10;0.10;;;;;;;-145.06;100.00;63404.56;10540949;28;20028;-88
2022/05/25 14:20:41;;;;;;;0.00;0.00;;;;;;;-145.06;100.00;63404.56;10521739;28;20036;-87
2022/05/25 14:25:43;;;;;;;0.10;0.10;;;;;;;-145.06;100.00;63404.56;10522004;28;20058;-88
2022/05/25 14:30:43;;;;;;;0.00;0.00;;;;;;;-145.06;100.00;63404.56;10521968;28;20040;-87
2022/05/25 14:35:50;;;;;;;0.00;0.00;;;;;;;-145.06;100.00;63404.56;10508779;28;20534;-87
2022/05/25 14:40:56;;;;;;;0.10;0.10;;;;;;;-145.06;100.00;63404.56;10521209;28;20027;-87
2022/05/25 14:46:15;;;;;;;0.10;0.10;;;;;;;-145.06;100.00;63404.56;10539486;28;20032;-87
2022/05/25 14:51:19;;;;;;;0.00;0.00;;;;;;;-145.06;100.00;63404.56;10509765;28;20416;-89
2022/05/25 14:56:29;;;;;;;0.10;0.10;;;;;;;-145.06;100.00;63404.56;10497085;28;20025;-89
2022/05/25 15:01:33;;;;;;;0.00;0.00;;;;;;;-145.06;100.00;63404.56;10437955;28;20471;-88
2022/05/25 15:06:40;;;;;;;0.00;0.00;;;;;;;-145.06;100.00;63404.56;10462983;28;20396;-88
2022/05/25 15:11:42;;;;;;;0.10;0.10;;;;;;;-145.06;100.00;63404.56;10520853;28;20119;-88
2022/05/25 15:22:15;;;;;;;0.10;0.10;;;;;;;-145.06;100.00;63404.56;10474537;28;20489;-88
2022/05/25 15:27:23;;;;;;;0.10;0.10;;;;;;;-145.06;100.00;63404.56;10481741;28;20024;-87
2022/05/25 15:32:24;;;;;;;0.10;0.10;;;;;;;-145.06;100.00;63404.56;10456183;28;20492;-88
2022/05/25 15:37:26;;;;;;;0.03;0.03;;;;;;;-145.06;100.00;63404.56;10478859;28;20137;-87
2022/05/25 15:42:27;;;;;;;0.00;0.00;;;;;;;-145.06;100.00;63404.56;10475363;28;20044;-87
2022/05/25 15:47:27;;;;;;;0.10;0.10;;;;;;;-145.06;100.00;63404.56;10457613;28;20112;-88
2022/05/25 15:52:27;;;;;;;0.10;0.10;;;;;;;-145.06;100.00;63404.56;10455253;28;20025;-87
2022/05/25 15:57:27;;;;;;;0.10;0.10;;;;;;;-145.06;100.00;63404.56;10474126;28;20155;-87
2022/05/25 16:02:28;;;;;;;0.10;0.10;;;;;;;-145.06;100.00;63404.56;10473587;28;20037;-87
2022/05/25 16:12:48;;;;;;;0.10;0.10;;;;;;;-145.06;100.00;63404.56;10475010;28;20455;-87
2022/05/25 16:17:53;;;;;;;0.10;0.10;;;;;;;-145.06;100.00;63404.56;10502300;28;20041;-92
2022/05/25 16:22:53;;;;;;;0.10;0.10;;;;;;;-145.06;100.00;63404.56;10512724;28;20081;-91
2022/05/25 16:27:53;;;;;;;0.10;0.10;;;;;;;-145.06;100.00;63404.56;10498211;28;20041;-90
2022/05/25 16:32:54;;;;;;;0.10;0.10;;;;;;;-145.06;100.00;63404.56;10470649;28;20037;-93
2022/05/25 16:37:54;;;;;;;0.10;0.10;;;;;;;-145.06;100.00;63404.56;10521193;28;20054;-92
2022/05/25 16:42:55;;;;;;;0.10;0.10;;;;;;;-145.06;100.00;63404.56;10548375;28;20036;-93
2022/05/25 16:47:56;;;;;;;0.10;0.10;;;;;;;-145.06;100.00;63404.56;10553776;28;20024;-92
2022/05/25 16:52:56;;;;;;;0.00;0.00;;;;;;;-145.06;100.00;63404.56;10540224;28;20042;-91
2022/05/25 16:57:58;;;;;;;0.10;0.10;;;;;;;-145.06;100.00;63404.56;10550521;28;20044;-91
2022/05/25 17:02:58;;;;;;;0.10;0.10;;;;;;;-145.06;100.00;63404.56;10549225;28;20058;-92
2022/05/25 17:07:58;;;;;;;0.10;0.10;;;;;;;-145.06;100.00;63404.56;10553577;28;20049;-91
2022/05/25 17:12:59;;;;;;;0.10;0.10;;;;;;;-145.06;100.00;63404.56;10533383;28;20021;-92
2022/05/25 17:17:59;;;;;;;0.10;0.10;;;;;;;-145.06;100.00;63404.56;10561600;28;20036;-91
2022/05/25 17:23:08;;;;;;;0.10;0.10;;;;;;;-145.06;100.00;63404.56;10540066;22;20053;-94
2022/05/25 17:28:09;;;;;;;0.15;0.15;;;;;;;-145.06;100.00;63404.56;10491470;28;20060;-94
2022/05/25 17:33:10;;;;;;;0.10;0.10;;;;;;;-145.06;100.00;63404.56;10422504;22;20093;-66
2022/05/25 17:43:29;;;;;;;0.10;0.10;;;;;;;-145.06;100.00;63404.56;10333259;28;20030;-67
2022/05/25 17:48:30;;;;;;;0.10;0.10;;;;;;;-145.06;100.00;63404.56;10332166;28;20034;-68
2022/05/25 17:53:31;;;;;;;0.10;0.10;;;;;;;-145.06;100.00;63404.56;10332559;28;20132;-66
2022/05/25 17:58:34;;;;;;;0.10;0.10;;;;;;;-145.06;100.00;63404.56;10314489;28;20034;-65
2022/05/25 18:03:34;;;;;;;0.10;0.10;;;;;;;-145.06;100.00;63404.56;10331671;28;20619;-66
2022/05/25 18:08:35;;;;;;;0.10;0.10;;;;;;;-145.06;100.00;63404.56;10327845;28;20117;-69
2022/05/25 18:13:35;;;;;;;0.10;0.10;;;;;;;-145.06;100.00;63404.56;10331034;28;20038;-67
2022/05/25 18:18:36;;;;;;;0.10;0.10;;;;;;;-145.06;100.00;63404.56;10331204;28;20034;-65
2022/05/25 18:23:37;;;;;;;0.10;0.10;;;;;;;-145.06;100.00;63404.56;10330782;28;20481;-65
2022/05/25 18:28:37;;;;;;;0.10;0.10;;;;;;;-145.06;100.00;63404.56;10330377;28;20030;-65
2022/05/25 18:33:37;;;;;;;0.10;0.10;;;;;;;-145.06;100.00;63404.56;10330396;28;20042;-64
2022/05/25 18:38:38;;;;;;;0.10;0.10;;;;;;;-145.06;100.00;63404.56;10325298;28;20058;-65
2022/05/25 18:43:38;;;;;;;0.10;0.10;;;;;;;-145.06;100.00;63404.56;10329850;28;20038;-65
2022/05/25 18:48:39;;;;;;;0.10;0.10;;;;;;;-145.06;100.00;63404.56;10330492;28;20057;-65
2022/05/25 18:53:41;;;;;;;0.10;0.10;;;;;;;-145.06;100.00;63404.56;10329468;28;20042;-66
2022/05/25 18:58:42;;;;;;;0.00;0.00;;;;;;;-145.06;100.00;63404.56;10329725;28;20042;-64
2022/05/25 19:03:43;;;;;;;0.10;0.10;;;;;;;-145.06;100.00;63404.56;10329126;28;20041;-66
2022/05/25 19:08:44;;;;;;;0.10;0.10;;;;;;;-145.06;100.00;63404.56;10312159;28;20029;-65
2022/05/25 19:13:44;;;;;;;0.10;0.10;;;;;;;-145.06;100.00;63404.56;10328678;28;20429;-65
2022/05/25 19:18:44;;;;;;;0.10;0.10;;;;;;;-145.06;100.00;63404.56;10329286;28;20046;-63
2022/05/25 19:24:05;;;;;;;0.10;0.10;;;;;;;-145.06;100.00;63404.56;10328939;28;20072;-65
2022/05/25 19:29:05;;;;;;;0.10;0.10;;;;;;;-145.06;100.00;63404.56;10328928;28;20089;-64
2022/05/25 19:34:06;;;;;;;0.10;0.10;;;;;;;-145.06;100.00;63404.56;10328147;28;20065;-65
2022/05/25 19:39:08;;;;;;;0.10;0.10;;;;;;;-145.06;100.00;63404.56;10318158;28;20391;-68
2022/05/25 19:44:20;;;;;;;0.10;0.10;;;;;;;-145.06;100.00;63404.56;10327580;28;20261;-67
2022/05/25 19:54:42;;;;;;;0.10;0.10;;;;;;;-145.06;100.00;63404.56;10328222;28;20509;-66
2022/05/25 19:59:43;;;;;;;0.10;0.10;;;;;;;-145.06;100.00;63404.56;10328129;28;20031;-65
2022/05/25 20:04:43;;;;;;;0.10;0.10;;;;;;;-145.06;100.00;63404.56;10327090;28;20393;-65
2022/05/25 20:09:44;;;;;;;0.10;0.10;;;;;;;-145.06;100.00;63404.56;10322626;28;20029;-65
2022/05/25 20:14:44;;;;;;;0.10;0.10;;;;;;;-145.06;100.00;63404.56;10327976;28;20038;-65
2022/05/25 20:19:45;;;;;;;0.10;0.10;;;;;;;-145.06;100.00;63404.56;10327749;28;20047;-65
2022/05/25 20:24:46;;;;;;;0.10;0.10;;;;;;;-145.06;100.00;63404.56;10327134;28;20401;-64
2022/05/25 20:29:47;;;;;;;0.10;0.10;;;;;;;-145.06;100.00;63404.56;10327476;28;20023;-66
2022/05/25 20:34:47;;;;;;;0.10;0.10;;;;;;;-145.06;100.00;63404.56;10327345;28;20483;-66
2022/05/25 20:39:49;;;;;;;0.10;0.10;;;;;;;-145.06;100.00;63404.56;10326808;28;20157;-65
2022/05/25 20:44:52;;;;;;;0.10;0.10;;;;;;;-145.06;100.00;63404.56;10326842;28;20034;-66
2022/05/25 20:49:52;;;;;;;0.10;0.10;;;;;;;-145.06;100.00;63404.56;10327061;28;20437;-67
2022/05/25 20:55:00;;;;;;;0.10;0.10;;;;;;;-145.06;100.00;63404.56;10333277;28;20033;-66
2022/05/25 21:00:05;;;;;;;0.10;0.10;;;;;;;-145.06;100.00;63404.56;10334573;28;20548;-66
2022/05/25 21:05:07;;;;;;;0.10;0.10;;;;;;;-145.06;100.00;63404.56;10333792;28;20049;-68
2022/05/25 21:10:10;;;;;;;0.10;0.10;;;;;;;-145.06;100.00;63404.56;10344970;28;20546;-67
2022/05/25 21:15:15;;;;;;;0.10;0.10;;;;;;;-145.06;100.00;63404.56;10373986;28;20045;-66
2022/05/25 21:20:20;;;;;;;0.10;0.10;;;;;;;-145.06;100.00;63404.56;10374589;28;20049;-65
2022/05/25 21:25:20;;;;;;;0.10;0.10;;;;;;;-145.06;100.00;63404.56;10373423;28;20110;-66
2022/05/25 21:35:43;;;;;;;0.10;0.10;;;;;;;-145.06;100.00;63404.56;10374065;28;20050;-67
2022/05/25 21:40:44;;;;;;;0.10;0.10;;;;;;;-145.06;100.00;63404.56;10341964;28;20027;-68
2022/05/25 21:49:51;;;;;;;0.10;0.10;;;;;;;-145.06;100.00;63404.56;10314906;28;20117;-67
2022/05/25 21:51:05;;;;;;;0.10;0.10;;;;;;;-145.06;100.00;63404.56;10332594;28;20037;-66
2022/05/25 21:56:05;;;;;;;0.10;0.10;;;;;;;-145.06;100.00;63404.56;10331991;28;20573;-67
2022/05/25 22:01:05;;;;;;;0.10;0.10;;;;;;;-145.06;100.00;63404.56;10332200;28;20393;-66
2022/05/25 22:06:06;;;;;;;0.10;0.10;;;;;;;-145.06;100.00;63404.56;10331076;28;20031;-67
2022/05/25 22:11:06;;;;;;;0.10;0.10;;;;;;;-145.06;100.00;63404.56;10326684;28;20030;-66
2022/05/25 22:16:07;;;;;;;0.10;0.10;;;;;;;-145.06;100.00;63404.56;10331057;28;20113;-66
2022/05/25 22:21:07;;;;;;;0.10;0.10;;;;;;;-145.06;100.00;63404.56;10331616;28;20551;-65
2022/05/25 22:26:09;;;;;;;0.10;0.10;;;;;;;-145.06;100.00;63404.56;10326652;28;20054;-66
2022/05/25 22:31:10;;;;;;;0.10;0.10;;;;;;;-145.06;100.00;63404.56;10289558;28;20046;-67
2022/05/25 22:36:10;;;;;;;0.10;0.10;;;;;;;-145.06;100.00;63404.56;10287859;28;20046;-66
2022/05/25 22:41:10;;;;;;;0.10;0.10;;;;;;;-145.06;100.00;63404.56;10286796;28;20085;-66
2022/05/25 22:46:11;;;;;;;0.10;0.10;;;;;;;-145.06;100.00;63404.56;10288021;28;20030;-66
2022/05/25 22:51:11;;;;;;;0.10;0.10;;;;;;;-145.06;100.00;63404.56;10288373;28;20387;-67
2022/05/25 22:56:11;;;;;;;0.10;0.10;;;;;;;-145.06;100.00;63404.56;10288291;28;20120;-66
2022/05/25 23:01:12;;;;;;;0.10;0.10;;;;;;;-145.06;100.00;63404.56;10288183;28;20027;-66
2022/05/25 23:06:13;;;;;;;0.10;0.10;;;;;;;-145.06;100.00;63404.56;10287558;28;20031;-66
2022/05/25 23:11:15;;;;;;;0.10;0.10;;;;;;;-145.06;100.00;63404.56;10287321;28;20114;-66
2022/05/25 23:16:15;;;;;;;0.10;0.10;;;;;;;-145.06;100.00;63404.56;10286424;28;20030;-66
2022/05/25 23:21:16;;;;;;;0.10;0.10;;;;;;;-145.06;100.00;63404.56;10287406;28;20589;-69
2022/05/25 23:26:16;;;;;;;0.10;0.10;;;;;;;-145.06;100.00;63404.56;10366407;23;20072;-62
2022/05/25 23:31:16;;;;;;;0.10;0.10;;;;;;;-145.06;100.00;63404.56;10454183;28;20028;-62
2022/05/25 23:36:19;;;;;;;0.10;0.10;;;;;;;-145.06;100.00;63404.56;10449471;28;20037;-61
2022/05/25 23:46:39;;;;;;;0.10;0.10;;;;;;;-145.06;100.00;63404.56;10450033;28;20068;-63
2022/05/25 23:51:41;;;;;;;0.10;0.10;;;;;;;-145.06;100.00;63404.56;10468172;28;20059;-62
2022/05/25 23:56:41;;;;;;;0.10;0.10;;;;;;;-145.06;100.00;63404.56;10489648;28;20499;-62
